Time;durP1;ratioP1;P1;durP2;ratioP2;P2;SDS_P1;SDS_P2;PMS_P1;PMS_P2;Temp;Humidity;BMP_temperature;BMP_pressure;BME280_temperature;BME280_humidity;BME280_pressure;Samples;Min_cycle;Max_cycle;Signal;HPM_P1;HPM_P2
2023/09/19 00:01:25;;;;;;;9.18;2.83;;;;;;;;;;5126552;27;20061;-75
2023/09/19 00:03:58;;;;;;;8.60;3.22;;;;;;;;;;5108733;27;20059;-74
2023/09/19 00:06:31;;;;;;;14.60;2.83;;;;;;;;;;5125943;27;20055;-76
2023/09/19 00:09:02;;;;;;;6.88;3.15;;;;;;;;;;5125837;27;20047;-76
2023/09/19 00:11:34;;;;;;;15.10;3.50;;;;;;;;;;5117753;27;20043;-77
2023/09/19 00:14:08;;;;;;;6.95;2.60;;;;;;;;;;5109804;27;20039;-75
2023/09/19 00:16:41;;;;;;;8.65;2.63;;;;;;;;;;5126232;27;20416;-75
2023/09/19 00:19:11;;;;;;;12.25;2.90;;;;;;;;;;5125474;27;20529;-76
2023/09/19 00:21:41;;;;;;;9.40;3.33;;;;;;;;;;5107726;27;20039;-75
2023/09/19 00:24:17;;;;;;;7.15;3.05;;;;;;;;;;5125417;27;20051;-75
2023/09/19 00:26:50;;;;;;;12.25;3.20;;;;;;;;;;5125519;27;20051;-76
2023/09/19 00:29:23;;;;;;;9.75;3.05;;;;;;;;;;5106562;27;20409;-74
2023/09/19 00:31:53;;;;;;;12.32;3.25;;;;;;;;;;5117448;27;20047;-75
2023/09/19 00:34:24;;;;;;;8.20;3.10;;;;;;;;;;5104651;28;20070;-76
2023/09/19 00:36:55;;;;;;;9.77;3.13;;;;;;;;;;5105240;28;20048;-75
2023/09/19 00:39:31;;;;;;;9.25;2.88;;;;;;;;;;5121114;27;20548;-75
2023/09/19 00:42:04;;;;;;;8.50;2.80;;;;;;;;;;5125188;27;20062;-76
2023/09/19 00:44:36;;;;;;;5.40;2.08;;;;;;;;;;5125583;27;20039;-73
2023/09/19 00:47:09;;;;;;;11.20;2.67;;;;;;;;;;5125161;27;20051;-74
2023/09/19 00:49:40;;;;;;;5.22;2.70;;;;;;;;;;5125155;27;20433;-73
2023/09/19 00:52:13;;;;;;;7.10;2.45;;;;;;;;;;5125567;27;20051;-75
2023/09/19 00:54:43;;;;;;;7.05;2.72;;;;;;;;;;5125093;27;20047;-75
2023/09/19 00:57:19;;;;;;;9.68;2.95;;;;;;;;;;5105547;27;20414;-75
2023/09/19 00:59:51;;;;;;;;;;;;;;;;;;5126438;27;20367;-75
2023/09/19 01:02:22;;;;;;;7.47;2.78;;;;;;;;;;5107519;27;19919;-75
2023/09/19 01:04:53;;;;;;;12.25;2.50;;;;;;;;;;5125607;27;20043;-74
2023/09/19 01:07:25;;;;;;;8.50;2.85;;;;;;;;;;5125279;27;20050;-73
2023/09/19 01:09:58;;;;;;;12.43;2.75;;;;;;;;;;5106328;27;20051;-74
2023/09/19 01:13:12;;;;;;;7.70;2.83;;;;;;;;;;5104859;27;20051;-74
2023/09/19 01:16:14;;;;;;;10.40;3.08;;;;;;;;;;5104433;27;20051;-74
2023/09/19 01:18:57;;;;;;;6.63;2.47;;;;;;;;;;5105635;27;20065;-74
2023/09/19 01:21:47;;;;;;;7.65;2.45;;;;;;;;;;5103838;27;20059;-74
2023/09/19 01:24:27;;;;;;;8.55;2.67;;;;;;;;;;5105195;27;20063;-75
2023/09/19 01:27:19;;;;;;;7.93;2.67;;;;;;;;;;5123958;27;20047;-74
2023/09/19 01:29:51;;;;;;;7.70;2.88;;;;;;;;;;5125236;27;20485;-74
2023/09/19 01:32:24;;;;;;;10.18;2.80;;;;;;;;;;5124569;27;20054;-75
2023/09/19 01:34:59;;;;;;;8.30;2.65;;;;;;;;;;5123212;27;20521;-75
2023/09/19 01:37:29;;;;;;;7.60;2.50;;;;;;;;;;5125085;27;20382;-74
2023/09/19 01:40:18;;;;;;;5.60;2.40;;;;;;;;;;5124707;27;20433;-75
2023/09/19 01:42:59;;;;;;;5.03;2.47;;;;;;;;;;5124827;27;20383;-74
2023/09/19 01:45:54;;;;;;;5.45;2.58;;;;;;;;;;5124220;27;20489;-75
2023/09/19 01:48:47;;;;;;;8.55;2.60;;;;;;;;;;5125021;27;20051;-72
2023/09/19 01:51:31;;;;;;;5.70;2.20;;;;;;;;;;5124158;27;20050;-75
2023/09/19 01:54:12;;;;;;;5.90;2.30;;;;;;;;;;5125420;27;20054;-74
2023/09/19 01:56:59;;;;;;;6.78;2.28;;;;;;;;;;5124166;27;20043;-74
2023/09/19 01:59:41;;;;;;;4.28;2.20;;;;;;;;;;5105977;27;20054;-74
2023/09/19 02:02:14;;;;;;;8.40;2.63;;;;;;;;;;5105232;27;20048;-73
2023/09/19 02:04:46;;;;;;;4.20;2.55;;;;;;;;;;5104913;27;20555;-76
2023/09/19 02:07:17;;;;;;;4.63;2.00;;;;;;;;;;5104679;28;20063;-75
2023/09/19 02:09:48;;;;;;;4.68;2.70;;;;;;;;;;5106004;27;20058;-74
2023/09/19 02:12:18;;;;;;;3.95;2.67;;;;;;;;;;5124126;27;20509;-74
2023/09/19 02:14:49;;;;;;;3.67;2.45;;;;;;;;;;5104431;27;20073;-73
2023/09/19 02:17:20;;;;;;;8.68;2.95;;;;;;;;;;5124197;27;20050;-73
2023/09/19 02:19:51;;;;;;;4.25;1.90;;;;;;;;;;5105704;27;20425;-75
2023/09/19 02:22:24;;;;;;;7.90;2.13;;;;;;;;;;5122225;27;20046;-74
2023/09/19 02:25:00;;;;;;;7.68;2.47;;;;;;;;;;5123629;27;20509;-73
2023/09/19 02:27:32;;;;;;;6.60;2.00;;;;;;;;;;5106366;27;20425;-73
2023/09/19 02:30:02;;;;;;;3.72;1.70;;;;;;;;;;5105399;27;20055;-75
2023/09/19 02:32:36;;;;;;;3.15;1.80;;;;;;;;;;5123771;27;20695;-73
2023/09/19 02:35:10;;;;;;;4.05;1.65;;;;;;;;;;5123237;27;20054;-74
2023/09/19 02:37:41;;;;;;;2.25;1.58;;;;;;;;;;5123501;27;20043;-73
2023/09/19 02:40:18;;;;;;;3.17;1.73;;;;;;;;;;5104261;27;20051;-72
2023/09/19 02:42:53;;;;;;;4.80;1.83;;;;;;;;;;5123330;27;20520;-74
2023/09/19 02:45:25;;;;;;;5.38;1.70;;;;;;;;;;5123087;27;20047;-73
2023/09/19 02:47:55;;;;;;;2.38;1.38;;;;;;;;;;5123275;27;20035;-73
2023/09/19 02:50:26;;;;;;;3.20;1.92;;;;;;;;;;5121726;27;20055;-74
2023/09/19 02:52:57;;;;;;;2.50;1.63;;;;;;;;;;5123371;27;20520;-74
2023/09/19 02:55:28;;;;;;;5.45;1.60;;;;;;;;;;5123723;27;20518;-74
2023/09/19 02:58:01;;;;;;;3.28;1.83;;;;;;;;;;5122172;27;20043;-74
2023/09/19 03:00:33;;;;;;;3.65;1.65;;;;;;;;;;5123638;27;20043;-73
2023/09/19 03:03:06;;;;;;;2.58;1.40;;;;;;;;;;5104273;27;20051;-73
2023/09/19 03:05:38;;;;;;;2.92;1.75;;;;;;;;;;5104605;27;20070;-73
2023/09/19 03:12:22;;;;;;;2.58;1.48;;;;;;;;;;5125638;27;20043;-74
2023/09/19 03:14:54;;;;;;;2.88;1.35;;;;;;;;;;5103350;28;20051;-75
2023/09/19 03:17:25;;;;;;;2.15;1.38;;;;;;;;;;5103358;28;20047;-74
2023/09/19 03:19:57;;;;;;;2.63;1.60;;;;;;;;;;5103946;28;20650;-74
2023/09/19 03:22:28;;;;;;;7.50;1.83;;;;;;;;;;5104331;27;20058;-74
2023/09/19 03:25:00;;;;;;;3.53;1.42;;;;;;;;;;5122692;28;20055;-75
2023/09/19 03:27:31;;;;;;;3.75;1.75;;;;;;;;;;5103884;27;20072;-73
2023/09/19 03:30:05;;;;;;;5.75;1.90;;;;;;;;;;5123118;28;20043;-75
2023/09/19 03:32:36;;;;;;;3.17;1.90;;;;;;;;;;5103733;28;20051;-74
2023/09/19 03:35:08;;;;;;;2.40;1.70;;;;;;;;;;5123043;28;20047;-74
2023/09/19 03:37:42;;;;;;;6.38;1.90;;;;;;;;;;5103643;28;20055;-75
2023/09/19 03:40:12;;;;;;;6.45;1.67;;;;;;;;;;5103427;28;20058;-74
2023/09/19 03:42:43;;;;;;;7.00;1.60;;;;;;;;;;5103866;28;20054;-76
2023/09/19 03:45:16;;;;;;;10.50;1.60;;;;;;;;;;5103801;28;20433;-74
2023/09/19 03:47:50;;;;;;;2.72;1.77;;;;;;;;;;5104399;28;20058;-74
2023/09/19 03:50:25;;;;;;;5.43;1.63;;;;;;;;;;5103799;27;20059;-74
2023/09/19 03:52:58;;;;;;;4.72;1.70;;;;;;;;;;5103906;28;20057;-74
2023/09/19 03:55:30;;;;;;;3.60;1.70;;;;;;;;;;5122536;28;21204;-75
2023/09/19 03:58:03;;;;;;;5.30;2.00;;;;;;;;;;5103557;28;20387;-74
2023/09/19 04:00:34;;;;;;;3.53;1.73;;;;;;;;;;5102659;27;20760;-74
2023/09/19 04:03:08;;;;;;;4.25;1.80;;;;;;;;;;5122818;28;20116;-74
2023/09/19 04:05:39;;;;;;;4.45;2.00;;;;;;;;;;5103746;28;20055;-74
2023/09/19 04:08:11;;;;;;;4.20;1.88;;;;;;;;;;5103130;28;20051;-74
2023/09/19 04:10:45;;;;;;;4.80;1.75;;;;;;;;;;5103184;28;20521;-74
2023/09/19 04:13:17;;;;;;;3.92;1.98;;;;;;;;;;5121344;27;20410;-74
2023/09/19 04:15:48;;;;;;;6.30;1.60;;;;;;;;;;5122324;28;20861;-74
2023/09/19 04:18:23;;;;;;;12.45;2.00;;;;;;;;;;5103047;28;20055;-74
2023/09/19 04:20:54;;;;;;;5.85;1.77;;;;;;;;;;5103520;28;20687;-73
2023/09/19 04:23:25;;;;;;;2.60;1.60;;;;;;;;;;5103471;28;20403;-74
2023/09/19 04:25:55;;;;;;;4.10;1.67;;;;;;;;;;5122174;27;20050;-74
2023/09/19 04:28:27;;;;;;;5.35;1.70;;;;;;;;;;5122811;27;20047;-74
2023/09/19 04:30:59;;;;;;;3.95;2.00;;;;;;;;;;5123117;27;20051;-74
2023/09/19 04:33:29;;;;;;;5.43;2.03;;;;;;;;;;5125728;27;20046;-73
2023/09/19 04:36:00;;;;;;;5.35;2.00;;;;;;;;;;5126473;27;20047;-74
2023/09/19 04:38:42;;;;;;;5.20;1.90;;;;;;;;;;5126394;27;20042;-74
2023/09/19 04:41:15;;;;;;;5.05;2.40;;;;;;;;;;5126114;27;20043;-74
2023/09/19 04:43:45;;;;;;;7.20;2.17;;;;;;;;;;5124283;27;20058;-74
2023/09/19 04:46:17;;;;;;;4.68;2.17;;;;;;;;;;5125332;27;20043;-74
2023/09/19 04:48:47;;;;;;;5.72;1.98;;;;;;;;;;5125695;27;20055;-74
2023/09/19 04:51:20;;;;;;;4.22;2.10;;;;;;;;;;5125772;27;20050;-74
2023/09/19 04:53:51;;;;;;;4.85;2.10;;;;;;;;;;5125504;27;20051;-73
2023/09/19 04:56:21;;;;;;;10.20;2.45;;;;;;;;;;5125338;27;20043;-74
2023/09/19 04:58:51;;;;;;;5.10;2.00;;;;;;;;;;5124942;27;20047;-74
2023/09/19 05:01:22;;;;;;;5.00;2.10;;;;;;;;;;5106828;27;20057;-73
2023/09/19 05:03:53;;;;;;;3.20;2.03;;;;;;;;;;5125753;27;20042;-73
2023/09/19 05:06:23;;;;;;;4.40;2.08;;;;;;;;;;5125144;27;20385;-74
2023/09/19 05:08:54;;;;;;;3.75;2.10;;;;;;;;;;5125345;27;20697;-73
2023/09/19 05:11:25;;;;;;;4.13;2.08;;;;;;;;;;5106755;27;20544;-73
2023/09/19 05:13:56;;;;;;;3.33;2.20;;;;;;;;;;5125187;27;20043;-73
2023/09/19 05:16:29;;;;;;;5.13;2.08;;;;;;;;;;5124978;27;20043;-73
2023/09/19 05:19:00;;;;;;;3.10;1.65;;;;;;;;;;5125229;27;20051;-73
2023/09/19 05:21:33;;;;;;;4.00;2.00;;;;;;;;;;5125459;27;20521;-73
2023/09/19 05:24:06;;;;;;;4.57;2.17;;;;;;;;;;5107643;27;20406;-73
2023/09/19 05:26:38;;;;;;;;;;;;;;;;;;5125391;27;20055;-73
2023/09/19 05:29:09;;;;;;;4.30;2.05;;;;;;;;;;5124720;27;20405;-74
2023/09/19 05:31:42;;;;;;;4.03;2.20;;;;;;;;;;5106753;27;20414;-73
2023/09/19 05:34:14;;;;;;;6.70;2.70;;;;;;;;;;5124712;27;20481;-73
2023/09/19 05:36:45;;;;;;;4.43;2.30;;;;;;;;;;5124937;27;20051;-73
2023/09/19 05:39:15;;;;;;;4.53;1.95;;;;;;;;;;5124640;27;20047;-73
2023/09/19 05:41:47;;;;;;;5.38;2.38;;;;;;;;;;5124591;27;20058;-73
2023/09/19 05:44:17;;;;;;;5.75;2.10;;;;;;;;;;5124696;27;20410;-73
2023/09/19 05:46:48;;;;;;;4.88;2.03;;;;;;;;;;5124851;27;20044;-73
2023/09/19 05:49:21;;;;;;;4.60;2.17;;;;;;;;;;5123913;27;20383;-72
2023/09/19 05:51:53;;;;;;;5.38;1.98;;;;;;;;;;5124696;27;20055;-72
2023/09/19 05:54:24;;;;;;;5.55;2.42;;;;;;;;;;5124422;27;20873;-74
2023/09/19 05:56:57;;;;;;;3.40;2.20;;;;;;;;;;5124447;27;20525;-74
2023/09/19 05:59:28;;;;;;;4.70;2.10;;;;;;;;;;5123577;27;20059;-73
2023/09/19 06:02:04;;;;;;;4.80;2.63;;;;;;;;;;5123196;27;20050;-73
2023/09/19 06:04:36;;;;;;;4.50;2.75;;;;;;;;;;5124256;27;20043;-75
2023/09/19 06:07:07;;;;;;;4.40;2.45;;;;;;;;;;5124059;27;20434;-74
2023/09/19 06:09:38;;;;;;;6.20;2.15;;;;;;;;;;5123831;27;20051;-73
2023/09/19 06:12:12;;;;;;;3.15;2.25;;;;;;;;;;5124222;27;20047;-72
2023/09/19 06:14:44;;;;;;;8.40;1.85;;;;;;;;;;5124601;27;20058;-74
2023/09/19 06:17:15;;;;;;;2.67;1.80;;;;;;;;;;5124270;27;20062;-74
2023/09/19 06:19:47;;;;;;;6.60;2.13;;;;;;;;;;5124180;27;20059;-73
2023/09/19 06:22:18;;;;;;;6.07;2.30;;;;;;;;;;5123542;27;20062;-72
2023/09/19 06:24:49;;;;;;;6.03;2.38;;;;;;;;;;5123983;27;20062;-72
2023/09/19 06:27:19;;;;;;;7.97;2.40;;;;;;;;;;5123694;27;20050;-73
2023/09/19 06:29:50;;;;;;;7.00;2.78;;;;;;;;;;5123454;27;20692;-72
2023/09/19 06:32:27;;;;;;;8.00;2.70;;;;;;;;;;5124063;27;20054;-73
2023/09/19 06:34:59;;;;;;;4.60;2.20;;;;;;;;;;5123479;27;20047;-74
2023/09/19 06:37:30;;;;;;;7.10;2.55;;;;;;;;;;5123247;27;20520;-73
2023/09/19 06:40:01;;;;;;;6.28;2.70;;;;;;;;;;5122929;27;20047;-73
2023/09/19 06:42:31;;;;;;;7.00;2.15;;;;;;;;;;5123232;27;20570;-73
2023/09/19 06:45:05;;;;;;;7.95;2.30;;;;;;;;;;5123667;27;20062;-73
2023/09/19 06:47:36;;;;;;;7.03;2.72;;;;;;;;;;5123382;27;20047;-73
2023/09/19 06:50:09;;;;;;;8.45;2.53;;;;;;;;;;5123826;27;20047;-73
2023/09/19 06:52:41;;;;;;;8.00;2.45;;;;;;;;;;5123487;27;20047;-72
2023/09/19 06:55:13;;;;;;;7.18;2.22;;;;;;;;;;5123477;27;20046;-72
2023/09/19 06:57:43;;;;;;;6.50;2.60;;;;;;;;;;5123407;27;20047;-72
2023/09/19 07:00:18;;;;;;;8.70;2.72;;;;;;;;;;5124056;27;20039;-74
2023/09/19 07:03:00;;;;;;;5.90;2.58;;;;;;;;;;5123090;27;20046;-73
2023/09/19 07:05:32;;;;;;;6.53;2.35;;;;;;;;;;5123442;27;20062;-72
2023/09/19 07:08:07;;;;;;;8.50;2.47;;;;;;;;;;5123047;27;20054;-73
2023/09/19 07:10:37;;;;;;;5.80;2.00;;;;;;;;;;5122809;27;20047;-74
2023/09/19 07:13:10;;;;;;;12.05;2.30;;;;;;;;;;5122776;27;20043;-73
2023/09/19 07:15:46;;;;;;;10.60;1.90;;;;;;;;;;5122785;27;20070;-74
2023/09/19 07:18:19;;;;;;;6.63;2.20;;;;;;;;;;5123072;27;20413;-74
2023/09/19 07:20:49;;;;;;;9.93;2.20;;;;;;;;;;5104166;27;20623;-73
2023/09/19 07:23:22;;;;;;;10.25;2.30;;;;;;;;;;5122902;27;20063;-74
2023/09/19 07:25:58;;;;;;;6.20;2.10;;;;;;;;;;5123100;27;20055;-73
2023/09/19 07:28:28;;;;;;;;;;;;;;;;;;5123775;28;20413;-74
2023/09/19 07:31:02;;;;;;;9.05;2.53;;;;;;;;;;5122438;27;19924;-74
2023/09/19 07:33:33;;;;;;;8.45;2.40;;;;;;;;;;5122987;28;20830;-74
2023/09/19 07:36:03;;;;;;;14.40;3.05;;;;;;;;;;5122887;27;20437;-74
2023/09/19 07:38:35;;;;;;;10.50;2.42;;;;;;;;;;5122699;27;20047;-74
2023/09/19 07:41:05;;;;;;;7.72;2.30;;;;;;;;;;5122749;28;20054;-74
2023/09/19 07:43:38;;;;;;;12.13;2.55;;;;;;;;;;5122472;28;20043;-74
2023/09/19 07:46:09;;;;;;;13.32;2.63;;;;;;;;;;5123277;28;20050;-73
2023/09/19 07:48:40;;;;;;;12.27;2.80;;;;;;;;;;5122915;28;20039;-73
2023/09/19 07:51:11;;;;;;;11.90;2.75;;;;;;;;;;5123112;27;20410;-74
2023/09/19 07:53:42;;;;;;;8.18;2.33;;;;;;;;;;5122733;28;20048;-74
2023/09/19 07:56:13;;;;;;;10.68;2.65;;;;;;;;;;5121935;28;20055;-73
2023/09/19 07:58:43;;;;;;;13.07;2.83;;;;;;;;;;5122708;28;20061;-73
2023/09/19 08:01:16;;;;;;;10.30;3.22;;;;;;;;;;5122415;27;20051;-74
2023/09/19 08:03:48;;;;;;;10.13;2.70;;;;;;;;;;5122238;28;20058;-72
2023/09/19 08:06:21;;;;;;;12.07;2.97;;;;;;;;;;5124366;27;20050;-74
2023/09/19 08:08:54;;;;;;;11.43;2.85;;;;;;;;;;5126396;27;20047;-74
2023/09/19 08:11:25;;;;;;;13.25;3.15;;;;;;;;;;5125699;27;20046;-73
2023/09/19 08:13:55;;;;;;;5.78;2.65;;;;;;;;;;5126235;27;20035;-73
2023/09/19 08:16:28;;;;;;;17.48;3.65;;;;;;;;;;5126161;27;20549;-74
2023/09/19 08:18:59;;;;;;;10.98;3.53;;;;;;;;;;5126049;27;20051;-73
2023/09/19 08:21:29;;;;;;;10.93;3.15;;;;;;;;;;5126638;27;20043;-74
2023/09/19 08:24:01;;;;;;;13.63;3.60;;;;;;;;;;5126416;27;20774;-73
2023/09/19 08:26:32;;;;;;;14.45;3.28;;;;;;;;;;5126504;27;20058;-73
2023/09/19 08:29:06;;;;;;;18.02;3.63;;;;;;;;;;5126258;27;20439;-73
2023/09/19 08:31:37;;;;;;;15.75;3.67;;;;;;;;;;5106621;27;20529;-74
2023/09/19 08:34:08;;;;;;;17.75;3.50;;;;;;;;;;5126011;27;20417;-73
2023/09/19 08:36:41;;;;;;;13.95;3.22;;;;;;;;;;5126282;27;20039;-72
2023/09/19 08:39:13;;;;;;;13.10;3.25;;;;;;;;;;5126902;27;20043;-73
2023/09/19 08:41:43;;;;;;;12.05;3.10;;;;;;;;;;5126249;27;20058;-73
2023/09/19 08:44:16;;;;;;;17.38;3.45;;;;;;;;;;5124088;27;20741;-73
2023/09/19 08:46:54;;;;;;;11.35;2.95;;;;;;;;;;5125815;27;20051;-74
2023/09/19 08:49:46;;;;;;;13.43;3.13;;;;;;;;;;5106312;27;20058;-73
2023/09/19 08:52:37;;;;;;;7.07;2.63;;;;;;;;;;5125113;27;20039;-73
2023/09/19 08:55:11;;;;;;;10.50;2.83;;;;;;;;;;5125916;27;20039;-73
2023/09/19 08:57:48;;;;;;;13.50;2.88;;;;;;;;;;5107776;27;20398;-72
2023/09/19 09:00:24;;;;;;;7.57;3.15;;;;;;;;;;5108223;27;20517;-73
2023/09/19 09:02:56;;;;;;;11.60;2.80;;;;;;;;;;5124820;27;20417;-74
2023/09/19 09:05:29;;;;;;;11.10;3.45;;;;;;;;;;5125727;27;20043;-74
2023/09/19 09:08:03;;;;;;;11.00;3.38;;;;;;;;;;5125260;27;20047;-74
2023/09/19 09:10:34;;;;;;;15.35;3.13;;;;;;;;;;5124977;27;20611;-73
2023/09/19 09:13:06;;;;;;;9.77;3.67;;;;;;;;;;5125381;27;20047;-74
2023/09/19 09:15:39;;;;;;;13.93;3.70;;;;;;;;;;5125847;27;20043;-73
2023/09/19 09:18:13;;;;;;;12.20;2.72;;;;;;;;;;5125279;27;20132;-74
2023/09/19 09:20:44;;;;;;;6.88;2.80;;;;;;;;;;5125576;27;20620;-75
2023/09/19 09:23:15;;;;;;;11.00;3.38;;;;;;;;;;5125136;27;20055;-74
2023/09/19 09:25:56;;;;;;;9.05;2.50;;;;;;;;;;5124962;27;20062;-73
2023/09/19 09:28:28;;;;;;;9.15;2.95;;;;;;;;;;5125934;27;20386;-74
2023/09/19 09:30:59;;;;;;;10.18;2.50;;;;;;;;;;5124969;27;20061;-73
2023/09/19 09:33:30;;;;;;;10.55;2.58;;;;;;;;;;5124892;27;20505;-74
2023/09/19 09:36:05;;;;;;;7.25;2.42;;;;;;;;;;5124911;27;20413;-75
2023/09/19 09:38:55;;;;;;;12.95;2.40;;;;;;;;;;5124968;27;20054;-75
2023/09/19 09:41:38;;;;;;;8.35;2.45;;;;;;;;;;5106330;27;20043;-76
2023/09/19 09:44:17;;;;;;;12.95;2.22;;;;;;;;;;5125027;27;20528;-76
2023/09/19 09:46:58;;;;;;;10.27;2.78;;;;;;;;;;5124782;27;20047;-76
2023/09/19 09:52:16;;;;;;;10.90;2.03;;;;;;;;;;5124327;27;20062;-75
2023/09/19 09:55:05;;;;;;;9.90;1.90;;;;;;;;;;5124840;27;20050;-76
2023/09/19 09:57:36;;;;;;;;;;;;;;;;;;5125168;27;20050;-76
2023/09/19 10:02:46;;;;;;;7.95;1.67;;;;;;;;;;5105034;27;20066;-76
2023/09/19 10:05:34;;;;;;;4.75;2.10;;;;;;;;;;5123996;27;20043;-76
2023/09/19 10:08:19;;;;;;;;;;;;;;;;;;5124893;27;20045;-78
2023/09/19 10:13:30;;;;;;;2.25;1.30;;;;;;;;;;5125040;27;20050;-76
2023/09/19 10:16:10;;;;;;;5.30;1.52;;;;;;;;;;5104790;27;20058;-75
2023/09/19 10:18:44;;;;;;;2.00;1.25;;;;;;;;;;5105605;27;20047;-75
2023/09/19 10:21:22;;;;;;;5.55;2.00;;;;;;;;;;5104302;27;20047;-75
2023/09/19 10:23:56;;;;;;;2.75;1.50;;;;;;;;;;5123436;27;20066;-75
2023/09/19 10:26:30;;;;;;;3.60;1.27;;;;;;;;;;5124069;27;20116;-76
2023/09/19 10:29:07;;;;;;;6.88;1.67;;;;;;;;;;5122826;27;20047;-75
2023/09/19 10:31:41;;;;;;;6.15;1.17;;;;;;;;;;5105618;27;20050;-74
2023/09/19 10:34:11;;;;;;;3.88;0.80;;;;;;;;;;5124045;27;20054;-75
2023/09/19 10:36:46;;;;;;;1.05;0.90;;;;;;;;;;5122978;27;20039;-76
2023/09/19 10:39:19;;;;;;;4.60;0.60;;;;;;;;;;5123275;27;20047;-74
2023/09/19 10:41:59;;;;;;;1.67;0.60;;;;;;;;;;5123792;27;20417;-76
2023/09/19 10:44:33;;;;;;;0.20;0.20;;;;;;;;;;5123274;27;20050;-75
2023/09/19 10:47:07;;;;;;;0.52;0.47;;;;;;;;;;5123347;27;20513;-75
2023/09/19 10:49:48;;;;;;;0.60;0.30;;;;;;;;;;5123891;27;20666;-75
2023/09/19 10:52:24;;;;;;;1.67;0.50;;;;;;;;;;5123266;27;20055;-75
2023/09/19 10:54:59;;;;;;;2.55;0.95;;;;;;;;;;5123417;27;20078;-77
2023/09/19 10:57:31;;;;;;;1.42;0.80;;;;;;;;;;5123419;27;20047;-76
2023/09/19 11:00:27;;;;;;;0.90;0.60;;;;;;;;;;5123937;27;20046;-76
2023/09/19 11:03:14;;;;;;;1.48;0.65;;;;;;;;;;5123977;27;20498;-76
2023/09/19 11:06:06;;;;;;;1.52;0.85;;;;;;;;;;5123316;27;20097;-75
2023/09/19 11:09:22;;;;;;;0.90;0.52;;;;;;;;;;5123736;27;20051;-76
2023/09/19 11:11:53;;;;;;;1.23;0.73;;;;;;;;;;5122550;27;20394;-73
2023/09/19 11:14:24;;;;;;;1.50;0.60;;;;;;;;;;5122652;27;20516;-75
2023/09/19 11:17:15;;;;;;;1.13;0.80;;;;;;;;;;5122659;27;20485;-73
2023/09/19 11:22:58;;;;;;;1.38;0.85;;;;;;;;;;5122033;27;20494;-75
2023/09/19 11:25:29;;;;;;;2.72;0.90;;;;;;;;;;5123203;27;20520;-75
2023/09/19 11:28:07;;;;;;;2.50;1.10;;;;;;;;;;5121612;28;20047;-74
2023/09/19 11:30:45;;;;;;;2.08;1.00;;;;;;;;;;5123095;28;20054;-77
2023/09/19 11:33:33;;;;;;;1.30;0.80;;;;;;;;;;5122660;28;20078;-76
2023/09/19 11:36:15;;;;;;;2.30;0.80;;;;;;;;;;5123226;28;20043;-76
2023/09/19 11:38:47;;;;;;;3.33;1.23;;;;;;;;;;5121612;28;20043;-75
2023/09/19 11:41:26;;;;;;;1.05;0.80;;;;;;;;;;5125148;27;20055;-82
2023/09/19 11:44:04;;;;;;;1.60;0.88;;;;;;;;;;5127369;27;20586;-76
2023/09/19 11:46:51;;;;;;;0.68;0.60;;;;;;;;;;5127825;27;20047;-76
2023/09/19 11:49:31;;;;;;;;;;;;;;;;;;5127362;27;20043;-76
2023/09/19 11:52:08;;;;;;;0.57;0.52;;;;;;;;;;5126812;27;19935;-75
2023/09/19 11:54:41;;;;;;;1.05;0.77;;;;;;;;;;5107216;27;20528;-76
2023/09/19 11:57:21;;;;;;;0.80;0.70;;;;;;;;;;5126652;27;20051;-76
2023/09/19 11:59:53;;;;;;;1.25;0.80;;;;;;;;;;5126473;27;20042;-76
2023/09/19 12:02:40;;;;;;;0.68;0.68;;;;;;;;;;5126765;27;20047;-75
2023/09/19 12:05:15;;;;;;;1.58;0.47;;;;;;;;;;5126760;27;20054;-75
2023/09/19 12:07:48;;;;;;;0.60;0.45;;;;;;;;;;5126403;27;20635;-75
2023/09/19 12:10:23;;;;;;;1.67;1.40;;;;;;;;;;5109016;27;20053;-76
2023/09/19 12:12:56;;;;;;;1.33;0.60;;;;;;;;;;5126294;27;20047;-76
2023/09/19 12:15:34;;;;;;;0.68;0.63;;;;;;;;;;5126595;27;20039;-75
2023/09/19 12:18:07;;;;;;;2.65;0.80;;;;;;;;;;5126359;27;20058;-76
2023/09/19 12:20:50;;;;;;;1.30;0.77;;;;;;;;;;5123959;27;20059;-75
2023/09/19 12:23:20;;;;;;;2.67;1.35;;;;;;;;;;5126409;27;20109;-76
2023/09/19 12:25:55;;;;;;;3.53;1.02;;;;;;;;;;5124683;27;20047;-75
2023/09/19 12:28:34;;;;;;;1.58;1.05;;;;;;;;;;5125479;27;20501;-75
2023/09/19 12:31:08;;;;;;;1.73;0.95;;;;;;;;;;5125524;27;20051;-75
2023/09/19 12:33:42;;;;;;;3.42;1.00;;;;;;;;;;5125968;27;20826;-76
2023/09/19 12:36:29;;;;;;;1.20;0.93;;;;;;;;;;5126072;27;20051;-75
2023/09/19 12:39:00;;;;;;;2.70;1.25;;;;;;;;;;5126988;27;20402;-75
2023/09/19 12:41:30;;;;;;;3.92;1.20;;;;;;;;;;5126465;27;20066;-75
2023/09/19 12:44:05;;;;;;;4.53;1.23;;;;;;;;;;5125786;27;20509;-75
2023/09/19 12:46:37;;;;;;;2.45;1.52;;;;;;;;;;5125660;27;20051;-75
2023/09/19 12:49:21;;;;;;;2.50;1.23;;;;;;;;;;5125683;27;20050;-75
2023/09/19 12:51:58;;;;;;;1.55;1.25;;;;;;;;;;5124564;27;20043;-74
2023/09/19 12:54:41;;;;;;;2.38;1.10;;;;;;;;;;5125647;27;20039;-75
2023/09/19 12:57:27;;;;;;;1.52;1.15;;;;;;;;;;5122895;27;20058;-75
2023/09/19 12:59:57;;;;;;;5.85;1.10;;;;;;;;;;5125609;27;20047;-75
2023/09/19 13:02:28;;;;;;;1.80;0.82;;;;;;;;;;5125079;27;20066;-75
2023/09/19 13:05:00;;;;;;;1.10;0.75;;;;;;;;;;5125059;27;20054;-74
2023/09/19 13:07:50;;;;;;;1.83;0.98;;;;;;;;;;5125095;27;20043;-75
2023/09/19 13:10:24;;;;;;;1.65;0.98;;;;;;;;;;5125109;27;20051;-75
2023/09/19 13:13:25;;;;;;;1.02;0.70;;;;;;;;;;5125184;27;20055;-75
2023/09/19 13:16:01;;;;;;;0.75;0.65;;;;;;;;;;5125527;27;20410;-74
2023/09/19 13:18:33;;;;;;;1.15;0.70;;;;;;;;;;5124947;27;20046;-75
2023/09/19 13:21:15;;;;;;;2.92;0.68;;;;;;;;;;5124971;27;20056;-75
2023/09/19 13:23:48;;;;;;;2.55;0.77;;;;;;;;;;5125209;27;20537;-75
2023/09/19 13:26:19;;;;;;;1.52;0.68;;;;;;;;;;5125063;27;20601;-75
2023/09/19 13:28:50;;;;;;;1.58;1.05;;;;;;;;;;5106936;27;20514;-76
2023/09/19 13:31:21;;;;;;;1.50;0.82;;;;;;;;;;5105475;27;20063;-78
2023/09/19 13:33:52;;;;;;;1.83;1.10;;;;;;;;;;5124370;27;20058;-76
2023/09/19 13:36:24;;;;;;;2.95;0.80;;;;;;;;;;5105120;27;20407;-75
2023/09/19 13:38:55;;;;;;;5.63;1.60;;;;;;;;;;5124937;27;20047;-74
2023/09/19 13:41:26;;;;;;;1.05;0.63;;;;;;;;;;5124592;27;20050;-75
2023/09/19 13:43:57;;;;;;;3.58;0.70;;;;;;;;;;5122147;27;20062;-75
2023/09/19 13:46:28;;;;;;;1.10;0.73;;;;;;;;;;5124379;27;20043;-75
2023/09/19 13:48:59;;;;;;;3.30;0.73;;;;;;;;;;5124937;27;20069;-76
2023/09/19 13:51:32;;;;;;;1.13;0.70;;;;;;;;;;5124969;27;20043;-76
2023/09/19 13:54:03;;;;;;;1.30;0.70;;;;;;;;;;5124264;27;20054;-75
2023/09/19 13:56:33;;;;;;;3.28;2.50;;;;;;;;;;5124318;27;20418;-74
2023/09/19 13:59:06;;;;;;;2.90;1.20;;;;;;;;;;5123979;27;20039;-75
2023/09/19 14:01:36;;;;;;;0.88;0.88;;;;;;;;;;5124046;27;20051;-74
2023/09/19 14:04:06;;;;;;;2.55;1.60;;;;;;;;;;5124458;27;20051;-75
2023/09/19 14:06:37;;;;;;;1.67;1.10;;;;;;;;;;5126166;27;20054;-76
2023/09/19 14:09:10;;;;;;;1.42;0.98;;;;;;;;;;5124816;27;20484;-75
2023/09/19 14:11:42;;;;;;;3.53;1.20;;;;;;;;;;5124293;27;20043;-74
2023/09/19 14:14:13;;;;;;;3.45;1.92;;;;;;;;;;5124362;27;20039;-74
2023/09/19 14:16:44;;;;;;;3.45;1.17;;;;;;;;;;5124527;27;20043;-75
2023/09/19 14:19:16;;;;;;;1.30;0.98;;;;;;;;;;5123680;27;20054;-78
2023/09/19 14:21:46;;;;;;;0.63;0.63;;;;;;;;;;5104874;27;20047;-74
2023/09/19 14:24:18;;;;;;;4.43;0.60;;;;;;;;;;5123021;27;20387;-74
2023/09/19 14:26:50;;;;;;;0.50;0.50;;;;;;;;;;5123501;27;20058;-76
2023/09/19 14:29:21;;;;;;;1.77;1.25;;;;;;;;;;5123677;27;20047;-76
2023/09/19 14:31:57;;;;;;;2.15;0.82;;;;;;;;;;5104333;27;20051;-75
2023/09/19 14:34:28;;;;;;;2.40;0.57;;;;;;;;;;5123196;27;20054;-77
2023/09/19 14:36:58;;;;;;;1.88;1.20;;;;;;;;;;5123915;27;20043;-75
2023/09/19 14:39:29;;;;;;;2.63;1.83;;;;;;;;;;5123720;27;20422;-73
2023/09/19 14:42:00;;;;;;;2.63;1.98;;;;;;;;;;5123371;27;20051;-75
2023/09/19 14:44:30;;;;;;;4.05;1.95;;;;;;;;;;5104338;27;20425;-74
2023/09/19 14:47:05;;;;;;;0.60;0.60;;;;;;;;;;5123998;27;20050;-75
2023/09/19 14:49:39;;;;;;;1.33;1.00;;;;;;;;;;5123564;27;20039;-74
2023/09/19 14:52:12;;;;;;;;;;;;;;;;;;5123530;27;20460;-73
2023/09/19 14:54:42;;;;;;;0.50;0.50;;;;;;;;;;5103978;27;19953;-75
2023/09/19 14:57:14;;;;;;;0.73;0.73;;;;;;;;;;5123391;27;20058;-74
2023/09/19 14:59:45;;;;;;;1.13;0.90;;;;;;;;;;5123966;27;20402;-75
2023/09/19 15:02:16;;;;;;;2.28;0.93;;;;;;;;;;5123646;27;20497;-74
2023/09/19 15:04:47;;;;;;;1.60;0.70;;;;;;;;;;5123656;27;20051;-75
2023/09/19 15:07:18;;;;;;;2.47;1.02;;;;;;;;;;5123046;27;20050;-75
2023/09/19 15:09:49;;;;;;;5.25;1.20;;;;;;;;;;5122526;27;20050;-75
2023/09/19 15:12:19;;;;;;;1.42;1.05;;;;;;;;;;5123361;27;20047;-74
2023/09/19 15:14:49;;;;;;;1.10;0.80;;;;;;;;;;5122126;27;20055;-77
2023/09/19 15:17:21;;;;;;;1.48;0.90;;;;;;;;;;5123568;27;20047;-73
2023/09/19 15:19:53;;;;;;;2.92;1.35;;;;;;;;;;5122810;27;20047;-74
2023/09/19 15:22:23;;;;;;;0.95;0.70;;;;;;;;;;5103803;27;20422;-74
2023/09/19 15:24:53;;;;;;;1.73;1.10;;;;;;;;;;5122603;27;20597;-74
2023/09/19 15:27:26;;;;;;;1.02;0.75;;;;;;;;;;5102132;28;20055;-74
2023/09/19 15:30:02;;;;;;;2.72;0.73;;;;;;;;;;5102522;28;20048;-73
2023/09/19 15:32:33;;;;;;;2.53;0.82;;;;;;;;;;5102142;28;20430;-73
2023/09/19 15:35:03;;;;;;;2.10;0.98;;;;;;;;;;5102464;28;20062;-74
2023/09/19 15:37:34;;;;;;;3.13;1.30;;;;;;;;;;5101922;28;20047;-74
2023/09/19 15:40:08;;;;;;;3.15;1.17;;;;;;;;;;5102713;28;20326;-74